Time;durP1;ratioP1;P1;durP2;ratioP2;P2;SDS_P1;SDS_P2;PMS_P1;PMS_P2;Temp;Humidity;BMP_temperature;BMP_pressure;BME280_temperature;BME280_humidity;BME280_pressure;Samples;Min_cycle;Max_cycle;Signal;HPM_P1;HPM_P2
2023/05/04 00:01:17;;;;;;;;;;;;;;;9.78;57.32;98628.31;5068669;28;19924;-64
2023/05/04 00:04:06;;;;;;;;;;;;;;;9.73;57.42;98631.06;5063999;28;19924;-65
2023/05/04 00:06:56;;;;;;;;;;;;;;;9.68;57.71;98628.41;5074905;28;19924;-64
2023/05/04 00:09:46;;;;;;;;;;;;;;;9.72;57.39;98624.03;5101326;27;19935;-67
2023/05/04 00:12:35;;;;;;;;;;;;;;;9.69;57.44;98625.44;5076183;28;20006;-64
2023/05/04 00:15:23;;;;;;;;;;;;;;;9.68;57.60;98623.78;5079922;28;19920;-65
2023/05/04 00:18:12;;;;;;;;;;;;;;;9.62;57.46;98621.41;5092654;28;19924;-65
2023/05/04 00:21:03;;;;;;;;;;;;;;;9.60;57.63;98620.91;5089659;28;19924;-66
2023/05/04 00:23:51;;;;;;;;;;;;;;;9.53;58.09;98617.72;5084890;28;20314;-67
2023/05/04 00:26:41;;;;;;;;;;;;;;;9.76;57.66;98622.38;5069547;28;20046;-66
2023/05/04 00:29:30;;;;;;;;;;;;;;;9.57;58.21;98616.06;5065719;28;19933;-65
2023/05/04 00:32:18;;;;;;;;;;;;;;;9.39;58.27;98593.19;5069670;28;19932;-65
2023/05/04 00:35:08;;;;;;;;;;;;;;;9.34;58.61;98607.59;5065112;28;19979;-65
2023/05/04 00:37:56;;;;;;;;;;;;;;;9.25;59.01;98611.22;5077313;28;19981;-65
2023/05/04 00:40:44;;;;;;;;;;;;;;;9.13;59.50;98606.16;5091735;28;20652;-64
2023/05/04 00:43:33;;;;;;;;;;;;;;;9.33;59.07;98599.75;5068762;28;19928;-65
2023/05/04 00:46:21;;;;;;;;;;;;;;;9.23;59.53;98599.84;5082078;28;19927;-66
2023/05/04 00:49:09;;;;;;;;;;;;;;;9.19;59.56;98603.13;5078546;28;19924;-65
2023/05/04 00:51:58;;;;;;;;;;;;;;;9.11;59.75;98598.34;5071876;28;19924;-66
2023/05/04 00:54:47;;;;;;;;;;;;;;;9.03;60.18;98595.41;5080276;28;19928;-65
2023/05/04 00:57:35;;;;;;;;;;;;;;;8.93;60.54;98590.88;5095598;28;19924;-65
2023/05/04 01:00:23;;;;;;;;;;;;;;;8.86;60.72;98593.13;5069389;28;20254;-65
2023/05/04 01:03:11;;;;;;;;;;;;;;;8.76;61.05;98590.50;5080502;28;20442;-65
2023/05/04 01:06:01;;;;;;;;;;;;;;;8.66;61.28;98596.78;5081733;28;20044;-65
2023/05/04 01:08:53;;;;;;;;;;;;;;;8.60;61.72;98592.50;5069119;28;20015;-66
2023/05/04 01:11:44;;;;;;;;;;;;;;;8.58;61.50;98594.69;5067742;28;19924;-65
2023/05/04 01:14:33;;;;;;;;;;;;;;;8.66;61.36;98592.16;5067710;28;19931;-66
2023/05/04 01:17:21;;;;;;;;;;;;;;;8.60;61.29;98587.06;5060036;28;20015;-66
2023/05/04 01:20:10;;;;;;;;;;;;;;;8.56;61.50;98594.13;5081949;28;20006;-65
2023/05/04 01:22:59;;;;;;;;;;;;;;;8.43;61.70;98568.50;5068986;28;20310;-62
2023/05/04 01:25:49;;;;;;;;;;;;;;;8.44;62.16;98588.28;5076990;28;19935;-65
2023/05/04 01:28:39;;;;;;;;;;;;;;;8.45;61.66;98592.59;5081942;28;19924;-66
2023/05/04 01:31:27;;;;;;;;;;;;;;;8.36;62.01;98593.19;5066219;28;19951;-65
2023/05/04 01:34:15;;;;;;;;;;;;;;;8.36;61.75;98587.78;5067059;28;20015;-64
2023/05/04 01:37:03;;;;;;;;;;;;;;;8.39;61.98;98581.78;5078440;28;20049;-66
2023/05/04 01:39:53;;;;;;;;;;;;;;;8.45;61.88;98584.47;5081944;28;19920;-63
2023/05/04 01:42:41;;;;;;;;;;;;;;;8.47;61.60;98593.09;5069602;28;19924;-65
2023/05/04 01:45:30;;;;;;;;;;;;;;;8.42;61.71;98587.75;5093405;28;19928;-65
2023/05/04 01:48:21;;;;;;;;;;;;;;;8.34;61.77;98592.63;5067106;28;19945;-65
2023/05/04 01:51:09;;;;;;;;;;;;;;;8.27;61.97;98584.00;5084368;28;20563;-66
2023/05/04 01:53:57;;;;;;;;;;;;;;;8.22;61.95;98578.63;5066229;28;19920;-65
2023/05/04 01:56:47;;;;;;;;;;;;;;;8.23;62.00;98582.94;5091007;28;19934;-65
2023/05/04 01:59:35;;;;;;;;;;;;;;;8.21;62.04;98585.13;5096355;28;20525;-63
2023/05/04 02:02:23;;;;;;;;;;;;;;;8.20;62.11;98583.50;5063399;28;19924;-66
2023/05/04 02:05:12;;;;;;;;;;;;;;;8.11;62.22;98582.47;5063480;28;20031;-66
2023/05/04 02:08:00;;;;;;;;;;;;;;;8.04;62.79;98585.50;5081808;28;19924;-66
2023/05/04 02:10:48;;;;;;;;;;;;;;;7.99;63.04;98581.97;5066226;28;20584;-65
2023/05/04 02:13:38;;;;;;;;;;;;;;;7.98;63.20;98585.78;5068411;28;19920;-65
2023/05/04 02:16:26;;;;;;;;;;;;;;;7.95;63.00;98584.44;5081684;28;20263;-66
2023/05/04 02:19:14;;;;;;;;;;;;;;;7.94;63.11;98579.31;5083293;28;20025;-66
2023/05/04 02:22:03;;;;;;;;;;;;;;;7.88;63.30;98582.03;5085803;28;19924;-65
2023/05/04 02:24:51;;;;;;;;;;;;;;;8.04;62.91;98581.94;5067833;28;19931;-64
2023/05/04 02:27:39;;;;;;;;;;;;;;;7.93;63.29;98577.69;5067972;28;19924;-65
2023/05/04 02:30:29;;;;;;;;;;;;;;;7.95;63.17;98581.75;5083088;28;20020;-65
2023/05/04 02:33:18;;;;;;;;;;;;;;;7.82;63.46;98577.72;5067971;28;19920;-65
2023/05/04 02:36:06;;;;;;;;;;;;;;;7.78;63.64;98571.25;5067570;28;20442;-64
2023/05/04 02:38:54;;;;;;;;;;;;;;;7.89;63.68;98572.03;5067990;28;19924;-64
2023/05/04 02:41:43;;;;;;;;;;;;;;;7.84;63.67;98572.06;5067599;28;20054;-64
2023/05/04 02:44:31;;;;;;;;;;;;;;;7.87;63.56;98569.59;5067992;28;19955;-65
2023/05/04 02:47:20;;;;;;;;;;;;;;;7.81;63.67;98570.69;5079382;28;19924;-66
2023/05/04 02:50:09;;;;;;;;;;;;;;;7.73;63.82;98560.47;5064362;28;20176;-66
2023/05/04 02:52:57;;;;;;;;;;;;;;;7.77;63.90;98563.41;5071743;28;20389;-65
2023/05/04 02:55:45;;;;;;;;;;;;;;;7.69;64.05;98561.28;5069191;28;19924;-66
2023/05/04 02:58:33;;;;;;;;;;;;;;;7.66;63.99;98567.25;5073276;28;19956;-65
2023/05/04 03:01:21;;;;;;;;;;;;;;;7.66;64.40;98561.81;5070810;28;19953;-66
2023/05/04 03:04:11;;;;;;;;;;;;;;;7.73;64.07;98568.59;5061424;28;19924;-64
2023/05/04 03:06:59;;;;;;;;;;;;;;;7.61;64.35;98576.16;5099000;28;19999;-66
2023/05/04 03:09:47;;;;;;;;;;;;;;;7.49;64.63;98568.38;5099147;28;19945;-65
2023/05/04 03:12:36;;;;;;;;;;;;;;;7.51;64.98;98576.19;5084135;28;19930;-63
2023/05/04 03:15:24;;;;;;;;;;;;;;;7.57;64.54;98567.81;5094457;28;20415;-66
2023/05/04 03:18:12;;;;;;;;;;;;;;;7.72;64.19;98571.53;5099404;28;19920;-67
2023/05/04 03:21:03;;;;;;;;;;;;;;;7.70;64.15;98563.72;5098908;28;19931;-65
2023/05/04 03:23:52;;;;;;;;;;;;;;;7.61;64.03;98568.88;5098800;28;19927;-64
2023/05/04 03:26:40;;;;;;;;;;;;;;;7.60;64.58;98569.16;5060344;28;19920;-65
2023/05/04 03:29:29;;;;;;;;;;;;;;;7.63;64.18;98573.22;5083393;28;19932;-66
2023/05/04 03:32:18;;;;;;;;;;;;;;;7.57;64.13;98575.13;5084942;28;19942;-66
2023/05/04 03:35:06;;;;;;;;;;;;;;;7.56;64.21;98573.47;5073278;28;20048;-64
2023/05/04 03:37:57;;;;;;;;;;;;;;;7.51;64.51;98582.44;5069793;28;19920;-66
2023/05/04 03:40:45;;;;;;;;;;;;;;;7.60;64.39;98571.84;5086039;28;20015;-66
2023/05/04 03:43:34;;;;;;;;;;;;;;;7.58;64.43;98572.13;5098407;28;19969;-64
2023/05/04 03:46:22;;;;;;;;;;;;;;;7.61;64.27;98568.06;5069659;28;20023;-65
2023/05/04 03:49:11;;;;;;;;;;;;;;;7.63;64.46;98574.03;5083653;28;19920;-65
2023/05/04 03:51:59;;;;;;;;;;;;;;;7.57;64.11;98567.00;5058967;28;19924;-61
2023/05/04 03:54:49;;;;;;;;;;;;;;;7.61;64.08;98565.34;5067177;28;19920;-65
2023/05/04 03:57:37;;;;;;;;;;;;;;;7.60;64.17;98564.56;5082191;28;19931;-65
2023/05/04 04:00:26;;;;;;;;;;;;;;;7.58;64.02;98571.34;5097756;28;19931;-65
2023/05/04 04:03:21;;;;;;;;;;;;;;;7.65;64.09;98571.03;5069961;28;20604;-64
2023/05/04 04:06:12;;;;;;;;;;;;;;;7.71;63.86;98576.13;5098831;28;20013;-68
2023/05/04 04:09:00;;;;;;;;;;;;;;;7.70;64.24;98573.72;5066240;28;19935;-65
2023/05/04 04:11:52;;;;;;;;;;;;;;;7.64;64.24;98570.22;5084481;28;20059;-63
2023/05/04 04:14:40;;;;;;;;;;;;;;;7.67;64.35;98571.56;5067996;28;20018;-65
2023/05/04 04:17:28;;;;;;;;;;;;;;;7.66;64.17;98573.44;5070625;28;19924;-66
2023/05/04 04:20:16;;;;;;;;;;;;;;;7.62;63.79;98577.81;5093533;28;19935;-65
2023/05/04 04:23:04;;;;;;;;;;;;;;;7.54;64.02;98581.06;5080956;28;20324;-65
2023/05/04 04:25:55;;;;;;;;;;;;;;;7.68;63.92;98578.59;5085130;28;19920;-65
2023/05/04 04:28:49;;;;;;;;;;;;;;;7.70;63.72;98579.94;5083575;28;19919;-64
2023/05/04 04:31:38;;;;;;;;;;;;;;;7.78;63.43;98586.69;5083360;28;20307;-67
2023/05/04 04:34:27;;;;;;;;;;;;;;;7.69;63.55;98583.72;5082653;28;19924;-66
2023/05/04 04:37:16;;;;;;;;;;;;;;;7.68;63.33;98571.31;5086059;28;19935;-65
2023/05/04 04:40:06;;;;;;;;;;;;;;;7.86;62.80;98572.56;5068533;28;19951;-63
2023/05/04 04:42:55;;;;;;;;;;;;;;;7.81;62.85;98576.09;5066339;28;19934;-64
2023/05/04 04:45:45;;;;;;;;;;;;;;;7.77;62.94;98585.84;5066192;28;20277;-65
2023/05/04 04:48:33;;;;;;;;;;;;;;;7.80;62.80;98582.59;5078563;28;19927;-65
2023/05/04 04:51:21;;;;;;;;;;;;;;;7.82;63.25;98580.41;5077381;28;19920;-65
2023/05/04 04:54:12;;;;;;;;;;;;;;;7.85;63.11;98588.00;5065490;28;19924;-66
2023/05/04 04:57:01;;;;;;;;;;;;;;;7.88;62.90;98582.03;5083963;28;20465;-64
2023/05/04 04:59:49;;;;;;;;;;;;;;;7.90;63.14;98579.06;5083667;28;19932;-64
2023/05/04 05:02:39;;;;;;;;;;;;;;;8.10;62.58;98584.38;5071022;28;19935;-65
2023/05/04 05:05:27;;;;;;;;;;;;;;;8.13;62.26;98586.50;5080133;28;19927;-66
2023/05/04 05:08:18;;;;;;;;;;;;;;;8.15;62.06;98586.25;5080997;28;20552;-66
2023/05/04 05:11:06;;;;;;;;;;;;;;;8.25;62.04;98585.38;5084338;28;20019;-62
2023/05/04 05:13:55;;;;;;;;;;;;;;;8.28;61.74;98587.53;5081986;28;19924;-64
2023/05/04 05:16:43;;;;;;;;;;;;;;;8.32;62.00;98580.47;5068902;28;19923;-65
2023/05/04 05:19:35;;;;;;;;;;;;;;;8.36;61.66;98585.06;5068149;28;20190;-66
2023/05/04 05:22:24;;;;;;;;;;;;;;;8.37;61.88;98588.59;5082393;28;19977;-66
2023/05/04 05:25:14;;;;;;;;;;;;;;;8.49;61.19;98577.41;5097231;28;19968;-66
2023/05/04 05:28:03;;;;;;;;;;;;;;;8.58;61.13;98584.66;5105896;27;19968;-67
2023/05/04 05:30:51;;;;;;;;;;;;;;;8.70;60.64;98586.19;5102616;28;20004;-66
2023/05/04 05:33:40;;;;;;;;;;;;;;;8.80;60.44;98580.72;5103953;28;19920;-66
2023/05/04 05:36:29;;;;;;;;;;;;;;;8.96;59.63;98578.69;5090999;28;19926;-67
2023/05/04 05:39:17;;;;;;;;;;;;;;;8.94;59.99;98578.94;5098119;28;19931;-66
2023/05/04 05:42:06;;;;;;;;;;;;;;;9.08;59.24;98579.09;5102076;28;20608;-65
2023/05/04 05:44:54;;;;;;;;;;;;;;;9.18;59.35;98577.13;5098280;28;19931;-65
2023/05/04 05:47:45;;;;;;;;;;;;;;;9.25;58.74;98576.78;5103214;28;19927;-66
2023/05/04 05:50:33;;;;;;;;;;;;;;;9.52;58.02;98575.41;5092783;28;19941;-66
2023/05/04 05:53:23;;;;;;;;;;;;;;;9.67;57.66;98577.97;5099724;28;20015;-65
2023/05/04 05:56:12;;;;;;;;;;;;;;;9.62;57.43;98578.81;5098497;28;19924;-65
2023/05/04 05:59:00;;;;;;;;;;;;;;;9.63;57.52;98585.06;5093196;28;19980;-66
2023/05/04 06:01:48;;;;;;;;;;;;;;;9.68;57.86;98590.41;5103239;28;20030;-66
2023/05/04 06:04:36;;;;;;;;;;;;;;;9.97;57.01;98585.75;5103743;28;19926;-66
2023/05/04 06:07:26;;;;;;;;;;;;;;;10.03;57.12;98585.69;5095212;28;19924;-66
2023/05/04 06:10:20;;;;;;;;;;;;;;;10.07;56.97;98587.53;5102266;28;20470;-65
2023/05/04 06:13:08;;;;;;;;;;;;;;;10.18;56.59;98580.06;5103605;28;20046;-66
2023/05/04 06:15:56;;;;;;;;;;;;;;;10.25;56.02;98582.44;5098355;28;20027;-65
2023/05/04 06:18:44;;;;;;;;;;;;;;;10.52;55.37;98573.63;5101083;28;19965;-64
2023/05/04 06:21:32;;;;;;;;;;;;;;;10.50;55.28;98579.38;5104707;28;20322;-65
2023/05/04 06:24:21;;;;;;;;;;;;;;;10.64;55.52;98572.06;5121108;27;20027;-65
2023/05/04 06:27:11;;;;;;;;;;;;;;;10.80;54.60;98569.91;5106426;28;20014;-66
2023/05/04 06:30:00;;;;;;;;;;;;;;;11.02;54.03;98575.56;5112073;28;20411;-67
2023/05/04 06:32:48;;;;;;;;;;;;;;;11.04;53.78;98566.28;5092654;28;20323;-65
2023/05/04 06:35:36;;;;;;;;;;;;;;;11.30;53.38;98572.09;5097213;28;20035;-66
2023/05/04 06:38:24;;;;;;;;;;;;;;;11.38;52.97;98565.94;5107095;28;19924;-65
2023/05/04 06:41:12;;;;;;;;;;;;;;;11.45;53.55;98567.19;5112820;28;19965;-66
2023/05/04 06:44:02;;;;;;;;;;;;;;;11.49;53.53;98572.81;5103742;28;19927;-66
2023/05/04 06:46:50;;;;;;;;;;;;;;;11.59;52.97;98566.38;5105325;28;20368;-67
2023/05/04 06:49:38;;;;;;;;;;;;;;;11.75;52.94;98568.47;5098049;28;19935;-65
2023/05/04 06:52:28;;;;;;;;;;;;;;;11.89;52.38;98563.06;5095409;28;20018;-65
2023/05/04 06:55:16;;;;;;;;;;;;;;;12.03;52.00;98555.69;5106898;28;20539;-66
2023/05/04 06:58:04;;;;;;;;;;;;;;;12.14;51.51;98566.34;5102240;28;20364;-65
2023/05/04 07:00:54;;;;;;;;;;;;;;;12.28;51.20;98557.06;5112977;27;19923;-64
2023/05/04 07:03:43;;;;;;;;;;;;;;;12.43;51.92;98568.72;5097915;28;20002;-66
2023/05/04 07:06:32;;;;;;;;;;;;;;;12.49;50.53;98568.28;5108832;28;19939;-65
2023/05/04 07:09:21;;;;;;;;;;;;;;;12.57;50.46;98564.06;5092408;28;19942;-65
2023/05/04 07:12:09;;;;;;;;;;;;;;;12.80;49.68;98559.41;5106218;28;19920;-67
2023/05/04 07:14:57;;;;;;;;;;;;;;;13.04;49.77;98557.16;5107120;28;19931;-64
2023/05/04 07:17:47;;;;;;;;;;;;;;;13.06;49.54;98560.38;5092425;28;20008;-66
2023/05/04 07:20:35;;;;;;;;;;;;;;;13.19;49.81;98558.69;5105725;28;19920;-65
2023/05/04 07:23:24;;;;;;;;;;;;;;;13.30;49.00;98554.59;5095987;28;19920;-65
2023/05/04 07:26:12;;;;;;;;;;;;;;;13.66;48.26;98571.97;5096598;28;19923;-64
2023/05/04 07:29:00;;;;;;;;;;;;;;;13.75;48.25;98561.88;5106516;28;19919;-65
2023/05/04 07:31:48;;;;;;;;;;;;;;;13.88;47.51;98558.22;5106983;28;19932;-65
2023/05/04 07:34:38;;;;;;;;;;;;;;;14.06;47.17;98557.16;5105548;28;19920;-66
2023/05/04 07:37:33;;;;;;;;;;;;;;;14.22;45.86;98551.22;5102894;28;19920;-66
2023/05/04 07:40:21;;;;;;;;;;;;;;;14.42;45.79;98550.59;5097299;28;20011;-65
2023/05/04 07:43:09;;;;;;;;;;;;;;;14.60;45.10;98541.31;5101488;28;19950;-67
2023/05/04 07:45:57;;;;;;;;;;;;;;;14.75;44.22;98536.47;5105437;28;20383;-64
2023/05/04 07:48:46;;;;;;;;;;;;;;;14.86;44.21;98527.63;5104544;28;19938;-65
2023/05/04 07:51:36;;;;;;;;;;;;;;;15.05;44.13;98524.50;5099242;28;20643;-67
2023/05/04 07:54:30;;;;;;;;;;;;;;;15.27;43.94;98526.22;5118099;27;19978;-66
2023/05/04 07:57:19;;;;;;;;;;;;;;;15.40;43.19;98533.44;5104185;28;19938;-65
2023/05/04 08:00:08;;;;;;;;;;;;;;;15.50;43.03;98529.53;5102730;28;19931;-66
2023/05/04 08:03:02;;;;;;;;;;;;;;;15.59;42.76;98535.75;5105530;28;19957;-65
2023/05/04 08:05:51;;;;;;;;;;;;;;;15.75;42.68;98533.31;5102348;28;20415;-66
2023/05/04 08:08:40;;;;;;;;;;;;;;;15.78;42.52;98527.19;5101475;28;20270;-67
2023/05/04 08:11:28;;;;;;;;;;;;;;;15.72;42.18;98531.25;5094031;28;19924;-65
2023/05/04 08:14:17;;;;;;;;;;;;;;;15.85;42.55;98535.66;5116230;27;20016;-66
2023/05/04 08:17:06;;;;;;;;;;;;;;;15.97;42.33;98537.69;5088403;28;19938;-66
2023/05/04 08:19:54;;;;;;;;;;;;;;;16.05;41.98;98538.78;5104177;28;19958;-66
2023/05/04 08:22:43;;;;;;;;;;;;;;;16.23;42.37;98538.34;5115210;27;20037;-67
2023/05/04 08:25:32;;;;;;;;;;;;;;;16.32;41.80;98540.22;5107698;27;19934;-67
2023/05/04 08:28:21;;;;;;;;;;;;;;;16.39;41.25;98526.78;5102942;28;19934;-65
2023/05/04 08:31:09;;;;;;;;;;;;;;;16.52;41.56;98542.19;5104127;28;19938;-66
2023/05/04 08:33:57;;;;;;;;;;;;;;;16.66;41.45;98531.72;5103492;28;19926;-67
2023/05/04 08:36:46;;;;;;;;;;;;;;;16.80;40.50;98533.41;5089412;28;19950;-66
2023/05/04 08:39:34;;;;;;;;;;;;;;;16.80;40.85;98525.19;5109822;27;19930;-65
2023/05/04 08:42:31;;;;;;;;;;;;;;;16.93;40.70;98530.34;5094672;27;19923;-66
2023/05/04 08:45:19;;;;;;;;;;;;;;;17.02;40.43;98535.78;5091820;28;19950;-65
2023/05/04 08:48:08;;;;;;;;;;;;;;;16.99;40.70;98533.69;5099090;28;19931;-66
2023/05/04 08:50:57;;;;;;;;;;;;;;;17.12;40.95;98538.09;5087711;28;19939;-67
2023/05/04 08:53:45;;;;;;;;;;;;;;;17.13;39.95;98534.22;5102655;28;19938;-67
2023/05/04 08:56:35;;;;;;;;;;;;;;;17.26;40.54;98538.59;5094203;28;19953;-68
2023/05/04 08:59:25;;;;;;;;;;;;;;;17.49;39.26;98535.44;5099217;28;19935;-66
2023/05/04 09:02:13;;;;;;;;;;;;;;;17.42;39.28;98535.19;5095340;28;20516;-66
2023/05/04 09:05:03;;;;;;;;;;;;;;;17.48;38.99;98523.66;5104064;28;19957;-67
2023/05/04 09:07:54;;;;;;;;;;;;;;;17.51;38.84;98522.16;5104681;28;19938;-66
2023/05/04 09:10:43;;;;;;;;;;;;;;;17.52;39.23;98523.75;5110138;27;19938;-67
2023/05/04 09:13:31;;;;;;;;;;;;;;;17.52;38.39;98518.25;5098785;28;19924;-65
2023/05/04 09:16:21;;;;;;;;;;;;;;;17.73;38.79;98518.97;5102940;28;20123;-65
2023/05/04 09:19:16;;;;;;;;;;;;;;;17.86;39.38;98517.03;5102381;28;19924;-67
2023/05/04 09:22:13;;;;;;;;;;;;;;;17.99;37.49;98521.38;5100457;28;19980;-66
2023/05/04 09:25:06;;;;;;;;;;;;;;;17.94;36.98;98518.06;5095383;28;20279;-66
2023/05/04 09:27:55;;;;;;;;;;;;;;;18.02;37.15;98517.16;5092779;28;19919;-66
2023/05/04 09:30:44;;;;;;;;;;;;;;;18.09;36.62;98506.34;5104219;28;19932;-66
2023/05/04 09:33:33;;;;;;;;;;;;;;;18.13;35.75;98500.97;5116718;27;19954;-67
2023/05/04 09:36:23;;;;;;;;;;;;;;;18.22;36.45;98505.19;5104035;27;19923;-66
2023/05/04 09:39:13;;;;;;;;;;;;;;;18.08;36.57;98496.50;5093185;28;19924;-66
2023/05/04 09:42:02;;;;;;;;;;;;;;;18.06;36.66;98496.06;5104154;28;19920;-66
2023/05/04 09:45:01;;;;;;;;;;;;;;;18.20;36.18;98488.22;5097188;28;19920;-68
2023/05/04 09:47:51;;;;;;;;;;;;;;;18.16;35.27;98490.06;5101093;28;19988;-64
2023/05/04 09:50:43;;;;;;;;;;;;;;;18.15;35.08;98480.22;5099753;28;20277;-67
2023/05/04 09:53:32;;;;;;;;;;;;;;;18.27;35.44;98485.72;5104085;28;19927;-67
2023/05/04 09:56:22;;;;;;;;;;;;;;;18.26;34.97;98473.06;5098215;28;19924;-67
2023/05/04 09:59:10;;;;;;;;;;;;;;;18.11;34.71;98478.50;5102195;28;19932;-67
2023/05/04 10:01:59;;;;;;;;;;;;;;;18.30;34.64;98454.75;5104184;28;19924;-68
2023/05/04 10:04:54;;;;;;;;;;;;;;;18.50;34.17;98458.47;5099175;28;20010;-68
2023/05/04 10:07:45;;;;;;;;;;;;;;;18.59;34.25;98459.13;5109480;28;19920;-68
2023/05/04 10:10:33;;;;;;;;;;;;;;;18.73;34.23;98447.72;5098850;28;19924;-68
2023/05/04 10:13:22;;;;;;;;;;;;;;;18.76;34.36;98449.78;5109009;28;19931;-67
2023/05/04 10:16:14;;;;;;;;;;;;;;;18.87;34.60;98452.00;5103894;28;19919;-67
2023/05/04 10:19:18;;;;;;;;;;;;;;;18.85;34.77;98441.34;5098043;28;19927;-68
2023/05/04 10:22:10;;;;;;;;;;;;;;;19.01;33.79;98444.91;5099964;28;19947;-63
2023/05/04 10:25:07;;;;;;;;;;;;;;;19.09;33.10;98441.19;5103753;28;19943;-65
2023/05/04 10:27:57;;;;;;;;;;;;;;;19.22;32.79;98427.31;5087761;28;19928;-66
2023/05/04 10:30:45;;;;;;;;;;;;;;;19.15;32.52;98425.19;5101588;28;19945;-66
2023/05/04 10:33:40;;;;;;;;;;;;;;;19.21;33.57;98425.72;5101261;28;19919;-67
2023/05/04 10:36:35;;;;;;;;;;;;;;;19.28;32.59;98421.22;5103784;27;20057;-67
2023/05/04 10:39:24;;;;;;;;;;;;;;;19.28;31.53;98415.72;5091373;28;19950;-65
2023/05/04 10:42:13;;;;;;;;;;;;;;;19.47;30.80;98416.91;5091802;28;20432;-67
2023/05/04 10:45:02;;;;;;;;;;;;;;;19.43;32.21;98411.31;5100308;28;19979;-66
2023/05/04 10:47:57;;;;;;;;;;;;;;;19.47;32.37;98411.41;5102809;28;19919;-67
2023/05/04 10:50:46;;;;;;;;;;;;;;;19.25;30.61;98410.91;5083036;28;20584;-68
2023/05/04 10:53:34;;;;;;;;;;;;;;;19.36;30.66;98398.19;5087394;28;19963;-67
2023/05/04 10:56:24;;;;;;;;;;;;;;;19.40;31.75;98395.50;5084681;28;20016;-67
2023/05/04 10:59:14;;;;;;;;;;;;;;;19.62;32.41;98396.84;5090715;28;19965;-67
2023/05/04 11:02:02;;;;;;;;;;;;;;;19.55;33.17;98391.13;5102593;28;19920;-67
2023/05/04 11:05:01;;;;;;;;;;;;;;;19.65;31.99;98387.84;5103321;28;20036;-67
2023/05/04 11:07:51;;;;;;;;;;;;;;;19.80;31.54;98381.47;5103954;28;20287;-65
2023/05/04 11:10:40;;;;;;;;;;;;;;;19.99;31.88;98377.97;5104348;28;20148;-65
2023/05/04 11:13:29;;;;;;;;;;;;;;;19.83;30.44;98366.97;5104087;28;20670;-64
2023/05/04 11:16:23;;;;;;;;;;;;;;;19.98;30.49;98370.06;5106112;28;19939;-63
2023/05/04 11:19:12;;;;;;;;;;;;;;;20.02;30.61;98366.19;5104030;28;19923;-64
2023/05/04 11:22:01;;;;;;;;;;;;;;;19.94;31.85;98369.16;5089367;28;20429;-65
2023/05/04 11:24:50;;;;;;;;;;;;;;;20.18;31.67;98368.06;5063276;28;19958;-63
2023/05/04 11:27:38;;;;;;;;;;;;;;;20.11;31.36;98357.69;5104230;28;20457;-65
2023/05/04 11:30:30;;;;;;;;;;;;;;;20.31;31.24;98355.75;5100334;28;20009;-65
2023/05/04 11:33:20;;;;;;;;;;;;;;;20.34;29.59;98352.22;5103703;28;19920;-66
2023/05/04 11:36:10;;;;;;;;;;;;;;;20.28;29.87;98351.72;5088936;28;19920;-65
2023/05/04 11:38:59;;;;;;;;;;;;;;;20.19;29.61;98351.19;5098327;28;19924;-67
2023/05/04 11:41:48;;;;;;;;;;;;;;;20.35;30.18;98349.13;5090622;28;19924;-64
2023/05/04 11:44:36;;;;;;;;;;;;;;;20.20;29.63;98344.50;5104774;28;20368;-66
2023/05/04 11:47:25;;;;;;;;;;;;;;;20.21;31.20;98337.81;5105509;28;20284;-66
2023/05/04 11:50:16;;;;;;;;;;;;;;;20.19;30.85;98334.63;5096704;28;19980;-66
2023/05/04 11:53:05;;;;;;;;;;;;;;;20.11;30.35;98330.13;5107112;27;20615;-66
2023/05/04 11:55:55;;;;;;;;;;;;;;;20.36;30.60;98331.41;5089043;28;19927;-66
2023/05/04 11:58:45;;;;;;;;;;;;;;;20.49;29.58;98322.97;5103775;28;19927;-66
2023/05/04 12:01:34;;;;;;;;;;;;;;;20.74;29.54;98324.22;5096361;28;19984;-66
2023/05/04 12:04:22;;;;;;;;;;;;;;;20.62;29.44;98324.41;5104980;28;19927;-65
2023/05/04 12:07:12;;;;;;;;;;;;;;;20.75;29.57;98328.56;5107525;27;20492;-65
2023/05/04 12:10:00;;;;;;;;;;;;;;;20.86;29.53;98331.50;5099194;28;19958;-65
2023/05/04 12:12:49;;;;;;;;;;;;;;;20.83;29.01;98332.28;5101477;28;19924;-65
2023/05/04 12:15:37;;;;;;;;;;;;;;;20.73;28.57;98322.63;5118006;27;19923;-67
2023/05/04 12:18:28;;;;;;;;;;;;;;;20.82;29.51;98327.88;5097719;28;20487;-65
2023/05/04 12:21:17;;;;;;;;;;;;;;;20.97;28.67;98318.66;5106728;27;20026;-65
2023/05/04 12:24:07;;;;;;;;;;;;;;;21.00;28.74;98315.19;5103636;28;20440;-65
2023/05/04 12:26:56;;;;;;;;;;;;;;;21.02;26.81;98314.81;5090627;28;19934;-67
2023/05/04 12:29:44;;;;;;;;;;;;;;;21.02;26.19;98312.03;5087114;28;19939;-66
2023/05/04 12:32:33;;;;;;;;;;;;;;;21.13;27.25;98310.25;5095007;27;19930;-64
2023/05/04 12:35:22;;;;;;;;;;;;;;;21.20;26.18;98313.13;5119761;27;20328;-66
2023/05/04 12:38:10;;;;;;;;;;;;;;;21.18;24.64;98304.41;5096588;28;20303;-65
2023/05/04 12:41:03;;;;;;;;;;;;;;;21.16;24.97;98306.75;5103323;28;19965;-64
2023/05/04 12:43:51;;;;;;;;;;;;;;;21.03;25.90;98306.13;5103731;28;19927;-66
2023/05/04 12:46:40;;;;;;;;;;;;;;;21.12;26.68;98311.41;5117014;27;19968;-64
2023/05/04 12:49:28;;;;;;;;;;;;;;;21.06;27.24;98305.41;5095572;28;19932;-66
2023/05/04 12:52:17;;;;;;;;;;;;;;;21.09;24.10;98292.81;5098681;28;19930;-67
2023/05/04 12:55:06;;;;;;;;;;;;;;;21.02;24.92;98296.25;5103461;28;20041;-66
2023/05/04 12:57:55;;;;;;;;;;;;;;;21.00;25.17;98292.28;5098324;28;20573;-67
2023/05/04 13:00:44;;;;;;;;;;;;;;;21.01;24.30;98282.84;5103428;28;19920;-66
2023/05/04 13:03:33;;;;;;;;;;;;;;;20.99;26.47;98297.03;5104460;28;19920;-65
2023/05/04 13:06:23;;;;;;;;;;;;;;;21.18;25.30;98287.81;5104839;28;19970;-65
2023/05/04 13:09:12;;;;;;;;;;;;;;;21.13;26.44;98286.16;5099805;28;19920;-65
2023/05/04 13:12:00;;;;;;;;;;;;;;;21.22;24.78;98272.09;5103231;28;19938;-64
2023/05/04 13:14:54;;;;;;;;;;;;;;;21.25;25.77;98260.28;5095952;28;19920;-65
2023/05/04 13:17:43;;;;;;;;;;;;;;;21.34;24.49;98262.81;5102127;28;19920;-66
2023/05/04 13:20:31;;;;;;;;;;;;;;;21.12;25.21;98265.25;5102792;28;19936;-67
2023/05/04 13:23:20;;;;;;;;;;;;;;;21.14;25.33;98251.03;5104517;28;19924;-66
2023/05/04 13:26:09;;;;;;;;;;;;;;;21.27;24.75;98257.16;5104492;28;19958;-65
2023/05/04 13:28:57;;;;;;;;;;;;;;;21.42;22.78;98248.72;5101638;28;19930;-68
2023/05/04 13:31:47;;;;;;;;;;;;;;;21.07;24.96;98254.50;5088679;28;19920;-67
2023/05/04 13:34:36;;;;;;;;;;;;;;;21.13;24.91;98246.69;5093874;28;20022;-65
2023/05/04 13:37:25;;;;;;;;;;;;;;;21.35;24.12;98232.03;5102668;28;19923;-67
2023/05/04 13:40:14;;;;;;;;;;;;;;;21.53;24.06;98237.00;5104207;28;19924;-66
2023/05/04 13:43:02;;;;;;;;;;;;;;;21.37;24.03;98229.69;5098968;28;20291;-65
2023/05/04 13:45:51;;;;;;;;;;;;;;;21.33;27.15;98220.56;5101626;28;19931;-63
2023/05/04 13:48:41;;;;;;;;;;;;;;;21.55;25.21;98223.59;5088725;28;20000;-66
2023/05/04 13:51:29;;;;;;;;;;;;;;;21.48;24.55;98218.00;5103623;27;19962;-64
2023/05/04 13:54:17;;;;;;;;;;;;;;;21.49;24.27;98223.13;5095082;28;19939;-69
2023/05/04 13:57:09;;;;;;;;;;;;;;;21.82;23.01;98211.28;5087230;28;19947;-67
2023/05/04 13:59:58;;;;;;;;;;;;;;;21.85;23.33;98209.72;5088189;28;20010;-65
2023/05/04 14:02:58;;;;;;;;;;;;;;;21.68;23.32;98205.59;5103946;28;19962;-65
2023/05/04 14:05:49;;;;;;;;;;;;;;;21.67;25.00;98198.44;5098512;28;19923;-66
2023/05/04 14:08:37;;;;;;;;;;;;;;;21.69;26.28;98201.66;5101971;28;19927;-67
2023/05/04 14:11:26;;;;;;;;;;;;;;;21.64;23.70;98190.94;5104559;28;19931;-66
2023/05/04 14:14:15;;;;;;;;;;;;;;;22.04;23.39;98186.59;5095583;28;19924;-65
2023/05/04 14:17:03;;;;;;;;;;;;;;;21.96;23.61;98188.50;5102254;28;20416;-67
2023/05/04 14:19:51;;;;;;;;;;;;;;;21.87;22.42;98183.28;5086529;28;20201;-66
2023/05/04 14:22:41;;;;;;;;;;;;;;;21.84;23.30;98177.69;5080266;28;20422;-66
2023/05/04 14:25:29;;;;;;;;;;;;;;;21.88;23.06;98178.53;5080946;28;19940;-67
2023/05/04 14:28:17;;;;;;;;;;;;;;;21.88;23.04;98179.31;5082414;28;19974;-66
2023/05/04 14:31:07;;;;;;;;;;;;;;;21.95;23.54;98179.41;5066074;28;20049;-66
2023/05/04 14:33:55;;;;;;;;;;;;;;;21.99;23.43;98182.19;5077374;28;19931;-66
2023/05/04 14:36:44;;;;;;;;;;;;;;;22.18;22.30;98179.25;5070079;28;20037;-65
2023/05/04 14:39:33;;;;;;;;;;;;;;;22.21;22.39;98170.22;5084335;28;20388;-65
2023/05/04 14:42:23;;;;;;;;;;;;;;;22.03;22.34;98173.94;5077339;28;19920;-66
2023/05/04 14:45:12;;;;;;;;;;;;;;;22.05;22.92;98164.09;5086184;28;19928;-65